Main page
METAR-TAF:

METAR-TAF

Airports :

Murcia–San Javier Airport

Murcia, Spain

latitude: 37-47N, longitude: 000-48W, elevation: 5 m

Current weather observation

The report was made 34 minutes ago, at 01:00 UTC
Wind 5 kt from the North/Northwest
Temperature 21°C
Humidity 73%
Pressure 1017 hPa
Visibility 10 km or more

METAR: LELC 220100Z AUTO 33005KT 9999 NCD 21/16 Q1017

Time: 03:34 (01:34 UTC)

Forecast

The report was made 2 hours and 34 minutes ago, at 23:00 UTC
Forecast valid from 22 at 00 UTC to 22 at 24 UTC
Wind 5 kt from the North
Visibility 10 km or more
no clouds below 1500 m and no cumulonimbus
Becoming
from 22 at 08 UTC to 22 at 10 UTC
Wind 10 kt from the East
Becoming
from 22 at 20 UTC to 22 at 22 UTC
Wind 5 kt from the North

TAF: LELC 212300Z 2200/2224 01005KT CAVOK TX29/2213Z TN20/2205Z BECMG 2208/2210 10010KT BECMG 2220/2222 01005KT

Weather observations and forecasts of more than 4000 airports (METAR and TAF reports).

The available stations are represented by yellow and red dots on the map.

Hover mouse over dot to see the name of the station.

Then click to see weather observations and forecasts.

To change the map : click on the green buttons with a black cross to zoom in, on the green button with a dash to zoom out, or on the green arrows for adjacent maps.


METAR-TAF: